Home > Products > Valid Products > MTR

000
SAUS45 KRIW 040657
MTRP60
METAR KP60 040656Z AUTO 00000KT 08/07 A3008 RMK AO1 SLP106 P0001
T00780067 402110061 $





000
SAUS45 KRIW 040557
MTRP60
METAR KP60 040556Z AUTO 00000KT 08/07 A3011 RMK AO1 SLP115 60003
T00830072 10194 20083 50019 $





000
SAUS45 KRIW 040557
MTRP60
METAR KP60 040556Z AUTO 00000KT 08/07 A3011 RMK AO1 SLP115 60003
T00830072 10194 20083 50019 $





000
SAUS45 KRIW 040457
MTRP60
METAR KP60 040456Z AUTO 00000KT 08/07 A3014 RMK AO1 PK WND
28028/0413 SLP130 P0003 T00830067 $





000
SAUS45 KRIW 040357
MTRP60
METAR KP60 040356Z AUTO 31003KT 10/03 A3005 RMK AO1 SLP097 T01000033
$





000
SAUS45 KRIW 040257
MTRP60
METAR KP60 040256Z AUTO 32003KT 11/03 A3004 RMK AO1 SLP098 T01110033
52001 $





000
SAUS45 KRIW 040257
MTRP60
METAR KP60 040256Z AUTO 32003KT 11/03 A3004 RMK AO1 SLP098 T01110033
52001 $





000
SAUS45 KRIW 040157
MTRP60
METAR KP60 040156Z AUTO 00000KT 16/02 A3003 RMK AO1 SLP094 T01560022
$





000
SAUS45 KRIW 040057
MTRP60
METAR KP60 040056Z AUTO VRB05KT 18/02 A3004 RMK AO1 SLP096 T01830017
$





000
SAUS45 KRIW 032357
MTRP60
METAR KP60 032356Z AUTO 21005KT 19/01 A3003 RMK AO1 SLP091 T01890011
10211 20189 55004 $





000
SAUS45 KRIW 032357
MTRP60
METAR KP60 032356Z AUTO 21005KT 19/01 A3003 RMK AO1 SLP091 T01890011
10211 20189 55004 $





000
SAUS45 KRIW 032257
MTRP60
METAR KP60 032256Z AUTO 26007G21KT 120V360 20/01 A3003 RMK AO1
SLP082 T02000011 $





000
SAUS45 KRIW 032257
MTRP60
METAR KP60 032256Z AUTO 26007G21KT 120V360 20/01 A3003 RMK AO1
SLP082 T02000011 $





000
SAUS45 KRIW 032157
MTRP60
METAR KP60 032156Z AUTO 21/02 A3004 RMK AO1 SLP082 T02110017 $





000
SAUS45 KRIW 032058
MTRP60
METAR KP60 032056Z AUTO VRB05G15KT 20/02 A3005 RMK AO1 SLP095
T02000022 57008 $





000
SAUS45 KRIW 031958
MTRP60
METAR KP60 031956Z AUTO VRB05G16KT 20/03 A3006 RMK AO1 SLP101
T02000028 $





000
SAUS45 KRIW 031857
MTRP60
METAR KP60 031856Z AUTO VRB05G18KT 20/02 A3007 RMK AO1 SLP104
T02000022





000
SAUS45 KRIW 031857
MTRP60
METAR KP60 031856Z AUTO VRB05G18KT 20/02 A3007 RMK AO1 SLP104
T02000022





000
SAUS45 KRIW 031757
MTRP60
METAR KP60 031756Z AUTO VRB03KT 19/03 A3008 RMK AO1 SLP111 T01890033
10189 20067 58002





000
SAUS45 KRIW 031757
MTRP60
METAR KP60 031756Z AUTO VRB03KT 19/03 A3008 RMK AO1 SLP111 T01890033
10189 20067 58002





000
SAUS45 KRIW 031657
MTRP60
METAR KP60 031656Z AUTO 25007KT 200V290 17/04 A3009 RMK AO1 SLP114
T01720039





000
SAUS45 KRIW 031657
MTRP60
METAR KP60 031656Z AUTO 25007KT 200V290 17/04 A3009 RMK AO1 SLP114
T01720039





000
SAUS45 KRIW 031557
MTRP60
METAR KP60 031556Z AUTO 00000KT 17/04 A3009 RMK AO1 SLP112 T01670044





000
SAUS45 KRIW 031458
MTRP60
METAR KP60 031456Z AUTO 00000KT 13/08 A3009 RMK AO1 SLP116 T01330083
50001





000
SAUS45 KRIW 031357
MTRP60
METAR KP60 031356Z AUTO 00000KT 09/08 A3010 RMK AO1 SLP117 T00940083





000
SAUS45 KRIW 031257
MTRP60
METAR KP60 031256Z AUTO 31004KT 07/06 A3009 RMK AO1 SLP109 T00670061





000
SAUS45 KRIW 031257
MTRP60
METAR KP60 031256Z AUTO 31004KT 07/06 A3009 RMK AO1 SLP109 T00670061





000
SAUS45 KRIW 031157
MTRP60
METAR KP60 031156Z AUTO 00000KT 08/07 A3009 RMK AO1 SLP108 P0003
60012 70012 T00780067 10117 20061 58008 $





000
SAUS45 KRIW 031157
MTRP60
METAR KP60 031156Z AUTO 00000KT 08/07 A3009 RMK AO1 SLP108 P0003
60012 70012 T00780067 10117 20061 58008 $





000
SAUS45 KRIW 031058
MTRP60
METAR KP60 031056Z AUTO 27012G24KT 09/07 A3013 RMK AO1 PK WND
29033/1043 PRESRR SLP115 P0004 T00940067 $





000
SAUS45 KRIW 031058
MTRP60
METAR KP60 031056Z AUTO 27012G24KT 09/07 A3013 RMK AO1 PK WND
29033/1043 PRESRR SLP115 P0004 T00940067 $





000
SAUS45 KRIW 030957
MTRP60
METAR KP60 030956Z AUTO 00000KT 10/07 A3012 RMK AO1 PK WND
28027/0900 SLP113 P0005 T01000067 $





000
SAUS45 KRIW 030858
MTRP60
METAR KP60 030856Z AUTO 07/02 A3012 RMK AO1 PRESRR SLP115 T00720017
53001 $





000
SAUS45 KRIW 030757
MTRP60
METAR KP60 030756Z AUTO 32003KT 06/02 A3009 RMK AO1 SLP106 T00610017
$





000
SAUS45 KRIW 030757
MTRP60
METAR KP60 030756Z AUTO 32003KT 06/02 A3009 RMK AO1 SLP106 T00610017
$





000
SAUS45 KRIW 030658
MTRP60
METAR KP60 030656Z AUTO 31003KT 07/02 A3011 RMK AO1 SLP115 T00670017
402280028 $





000
SAUS45 KRIW 030658
MTRP60
METAR KP60 030656Z AUTO 31003KT 07/02 A3011 RMK AO1 SLP115 T00670017
402280028 $





000
SAUS45 KRIW 030557
MTRP60
METAR KP60 030556Z AUTO 00000KT 07/01 A3012 RMK AO1 SLP118 T00670011
10200 20067 58002 $





000
SAUS45 KRIW 030557
MTRP60
METAR KP60 030556Z AUTO 00000KT 07/01 A3012 RMK AO1 SLP118 T00670011
10200 20067 58002 $





000
SAUS45 KRIW 030457
MTRP60
METAR KP60 030456Z AUTO 00000KT 08/02 A3012 RMK AO1 SLP121 T00780017
$





000
SAUS45 KRIW 030357
MTRP60
METAR KP60 030356Z AUTO 00000KT 09/02 A3013 RMK AO1 SLP125 T00940022
$





000
SAUS45 KRIW 030258
MTRP60
METAR KP60 030256Z AUTO 00000KT 11/03 A3012 RMK AO1 SLP123 T01110033
53003 $





000
SAUS45 KRIW 030157
MTRP60
METAR KP60 030156Z AUTO 00000KT 16/03 A3011 RMK AO1 SLP128 T01610033
$





000
SAUS45 KRIW 030057
MTRP60
METAR KP60 030056Z AUTO VRB03KT 19/02 A3011 RMK AO1 SLP130 T01940022
$





000
SAUS45 KRIW 030057
MTRP60
METAR KP60 030056Z AUTO VRB03KT 19/02 A3011 RMK AO1 SLP130 T01940022
$





000
SAUS45 KRIW 022358
MTRP60
METAR KP60 022356Z AUTO VRB04KT 20/02 A3011 RMK AO1 SLP127 T02000017
10228 20189 55003 $





000
SAUS45 KRIW 022257
MTRP60
METAR KP60 022256Z AUTO 24010G18KT 210V290 22/M01 A3010 RMK AO1
SLP115 T02171011 $





000
SAUS45 KRIW 022157
MTRP60
METAR KP60 022156Z AUTO VRB05KT 21/M01 A3011 RMK AO1 SLP117
T02111006 $





000
SAUS45 KRIW 022057
MTRP60
METAR KP60 022056Z AUTO VRB04KT 22/M01 A3012 RMK AO1 SLP113
T02171006 56010 $





000
SAUS45 KRIW 021957
MTRP60
METAR KP60 021956Z AUTO VRB03G16KT 22/00 A3013 RMK AO1 SLP125
T02220000





000
SAUS45 KRIW 021957
MTRP60
METAR KP60 021956Z AUTO VRB03G16KT 22/00 A3013 RMK AO1 SLP125
T02220000





000
SAUS45 KRIW 021858
MTRP60
METAR KP60 021856Z AUTO 19007G15KT 120V230 21/M01 A3015 RMK AO1
SLP132 T02111011





000
SAUS45 KRIW 021858
MTRP60
METAR KP60 021856Z AUTO 19007G15KT 120V230 21/M01 A3015 RMK AO1
SLP132 T02111011





000
SAUS45 KRIW 021758
MTRP60
METAR KP60 021756Z AUTO 27009G16KT 230V290 21/00 A3016 RMK AO1
SLP137 T02060000 10211 20028 57001





000
SAUS45 KRIW 021658
MTRP60
METAR KP60 021656Z AUTO VRB03KT 19/02 A3016 RMK AO1 SLP137 T01940017





000
SAUS45 KRIW 021658
MTRP60
METAR KP60 021656Z AUTO VRB03KT 19/02 A3016 RMK AO1 SLP137 T01940017





000
SAUS45 KRIW 021558
MTRP60
METAR KP60 021556Z AUTO VRB04KT 17/02 A3016 RMK AO1 SLP138 T01720017





000
SAUS45 KRIW 021458
MTRP60
METAR KP60 021456Z AUTO 00000KT 15/06 A3017 RMK AO1 SLP138 T01500056
53006





000
SAUS45 KRIW 021358
MTRP60
METAR KP60 021356Z AUTO 00000KT 06/04 A3016 RMK AO1 SLP145 T00560044





000
SAUS45 KRIW 021258
MTRP60
METAR KP60 021256Z AUTO 30003KT 03/02 A3014 RMK AO1 SLP141 T00280022





000
SAUS45 KRIW 021258
MTRP60
METAR KP60 021256Z AUTO 30003KT 03/02 A3014 RMK AO1 SLP141 T00280022





000
SAUS45 KRIW 021158
MTRP60
METAR KP60 021156Z AUTO 30003KT 03/03 A3014 RMK AO1 SLP133 60006
70006 T00330028 10117 20033 58001 $





000
SAUS45 KRIW 021158
MTRP60
METAR KP60 021156Z AUTO 30003KT 03/03 A3014 RMK AO1 SLP133 60006
70006 T00330028 10117 20033 58001 $





000
SAUS45 KRIW 021058
MTRP60
METAR KP60 021056Z AUTO 00000KT 04/04 A3015 RMK AO1 SLP132 T00440039
$





000
SAUS45 KRIW 020958
MTRP60
METAR KP60 020956Z AUTO VRB03KT 06/06 A3015 RMK AO1 SLP128 P0006
T00610056 $





000
SAUS45 KRIW 020859
MTRP60
METAR KP60 020856Z AUTO VRB05KT 09/01 A3015 RMK AO1 SLP120 T00890006
58006 $





000
SAUS45 KRIW 020758
MTRP60
METAR KP60 020756Z AUTO 31003KT 05/M01 A3016 RMK AO1 SLP136
T00501011 $





000
SAUS45 KRIW 020657
MTRP60
METAR KP60 020656Z AUTO 31003KT 06/M01 A3017 RMK AO1 SLP136
T00561011 402281006 $





000
SAUS45 KRIW 020657
MTRP60
METAR KP60 020656Z AUTO 31003KT 06/M01 A3017 RMK AO1 SLP136
T00561011 402281006 $





000
SAUS45 KRIW 020557
MTRP60
METAR KP60 020556Z AUTO 00000KT 06/M01 A3017 RMK AO1 SLP138
T00611011 10217 20061 58003 $





000
SAUS45 KRIW 020557
MTRP60
METAR KP60 020556Z AUTO 00000KT 06/M01 A3017 RMK AO1 SLP138
T00611011 10217 20061 58003 $





000
SAUS45 KRIW 020457
MTRP60
METAR KP60 020456Z AUTO 30003KT 07/M01 A3017 RMK AO1 SLP149
T00721011 $





000
SAUS45 KRIW 020358
MTRP60
METAR KP60 020356Z AUTO 31003KT 09/M01 A3018 RMK AO1 SLP155
T00891011 $





000
SAUS45 KRIW 020358
MTRP60
METAR KP60 020356Z AUTO 31003KT 09/M01 A3018 RMK AO1 SLP155
T00891011 $





000
SAUS45 KRIW 020257
MTRP60
METAR KP60 020256Z AUTO 29003KT 11/M01 A3018 RMK AO1 SLP154
T01111006 53005 $





000
SAUS45 KRIW 020157
MTRP60
METAR KP60 020156Z AUTO VRB03KT 17/M04 A3017 RMK AO1 SLP156
T01721039 $





000
SAUS45 KRIW 020157
MTRP60
METAR KP60 020156Z AUTO VRB03KT 17/M04 A3017 RMK AO1 SLP156
T01721039 $





000
SAUS45 KRIW 020058
MTRP60
METAR KP60 020056Z AUTO VRB06KT 19/M04 A3016 RMK AO1 SLP153
T01941039 $





000
SAUS45 KRIW 012358
MTRP60
METAR KP60 012356Z AUTO 23007KT 200V280 22/M05 A3016 RMK AO1 SLP147
T02171050 10228 20200 55006 $





000
SAUS45 KRIW 012257
MTRP60
METAR KP60 012256Z AUTO 24009G19KT 140V280 22/M05 A3016 RMK AO1
SLP146 T02171050 $





000
SAUS45 KRIW 012158
MTRP60
METAR KP60 012156Z AUTO 26011G20KT 210V290 22/M06 A3017 RMK AO1
SLP147 T02221061 $





000
SAUS45 KRIW 012058
MTRP60
METAR KP60 012056Z AUTO 27008G22KT 210V300 22/M04 A3018 RMK AO1
SLP153 T02171039 55005 $





000
SAUS45 KRIW 012058
MTRP60
METAR KP60 012056Z AUTO 27008G22KT 210V300 22/M04 A3018 RMK AO1
SLP153 T02171039 55005 $





000
SAUS45 KRIW 011957
MTRP60
METAR KP60 011956Z AUTO 29009G23KT 22/M04 A3018 RMK AO1 SLP152
T02171039 $





000
SAUS45 KRIW 011957
MTRP60
METAR KP60 011956Z AUTO 29009G23KT 22/M04 A3018 RMK AO1 SLP152
T02171039 $





000
SAUS45 KRIW 011857
MTRP60
METAR KP60 011856Z AUTO 27008G18KT 22/M05 A3019 RMK AO1 SLP152
T02171050 $





000
SAUS45 KRIW 011758
MTRP60
METAR KP60 011756Z AUTO VRB04KT 20/M03 A3020 RMK AO1 SLP159
T02001028 10200 21006 58004





000
SAUS45 KRIW 011758
MTRP60
METAR KP60 011756Z AUTO VRB04KT 20/M03 A3020 RMK AO1 SLP159
T02001028 10200 21006 58004





000
SAUS45 KRIW 011657
MTRP60
METAR KP60 011656Z AUTO VRB03KT 16/04 A3021 RMK AO1 SLP172 T01560044





000
SAUS45 KRIW 011657
MTRP60
METAR KP60 011656Z AUTO VRB03KT 16/04 A3021 RMK AO1 SLP172 T01560044





000
SAUS45 KRIW 011557
MTRP60
METAR KP60 011556Z AUTO 12003KT 13/03 A3022 RMK AO1 SLP176 T01330028





000
SAUS45 KRIW 011458
MTRP60
METAR KP60 011456Z AUTO 00000KT 11/04 A3022 RMK AO1 SLP173 T01110039
51001





000
SAUS45 KRIW 011357
MTRP60
METAR KP60 011356Z AUTO 00000KT 02/00 A3022 RMK AO1 SLP182 T00220000





000
SAUS45 KRIW 011257
MTRP60
METAR KP60 011256Z AUTO 31003KT 00/M02 A3021 RMK AO1 SLP181
T00001017





000
SAUS45 KRIW 011257
MTRP60
METAR KP60 011256Z AUTO 31003KT 00/M02 A3021 RMK AO1 SLP181
T00001017





000
SAUS45 KRIW 011157
MTRP60
METAR KP60 011156Z AUTO 30003KT 00/M02 A3021 RMK AO1 SLP184
T00001017 10033 20000 53002





000
SAUS45 KRIW 011157
MTRP60
METAR KP60 011156Z AUTO 30003KT 00/M02 A3021 RMK AO1 SLP184
T00001017 10033 20000 53002





000
SAUS45 KRIW 011057
MTRP60
METAR KP60 011056Z AUTO VRB03KT 01/M02 A3021 RMK AO1 SLP178
T00061017





000
SAUS45 KRIW 011057
MTRP60
METAR KP60 011056Z AUTO VRB03KT 01/M02 A3021 RMK AO1 SLP178
T00061017





000
SAUS45 KRIW 010957
MTRP60
METAR KP60 010956Z AUTO 00000KT 01/M02 A3020 RMK AO1 SLP174
T00061017





000
SAUS45 KRIW 010857
MTRP60
METAR KP60 010856Z AUTO 00000KT 01/M03 A3021 RMK AO1 SLP172
T00111028 57006





000
SAUS45 KRIW 010757
MTRP60
METAR KP60 010756Z AUTO 31003KT 02/M03 A3021 RMK AO1 SLP178
T00171028





    US Dept of Commerce
    National Oceanic and Atmospheric Administration
    National Weather Service
    1325 East West Highway
    Silver Spring, MD 20910
    Page Author: NWS Internet Services Team
Disclaimer
Information Quality
Credits
Glossary
Privacy Policy
Freedom of Information Act (FOIA)
About Us
Career Opportunities